sensor_id;sensor_type;location;lat;lon;timestamp;P1;durP1;ratioP1;P2;durP2;ratioP2
11123;SDS011;5616;42.692;23.312;2023-11-19T00:00:46;1.80;;;1.70;;
11123;SDS011;5616;42.692;23.312;2023-11-19T00:03:13;1.87;;;1.77;;
11123;SDS011;5616;42.692;23.312;2023-11-19T00:05:40;2.23;;;2.03;;
11123;SDS011;5616;42.692;23.312;2023-11-19T00:08:08;1.90;;;1.80;;
11123;SDS011;5616;42.692;23.312;2023-11-19T00:10:35;1.80;;;1.70;;
11123;SDS011;5616;42.692;23.312;2023-11-19T00:13:01;1.80;;;1.70;;
11123;SDS011;5616;42.692;23.312;2023-11-19T00:15:29;1.80;;;1.70;;
11123;SDS011;5616;42.692;23.312;2023-11-19T00:17:56;2.00;;;1.83;;
11123;SDS011;5616;42.692;23.312;2023-11-19T00:20:23;1.93;;;1.73;;
11123;SDS011;5616;42.692;23.312;2023-11-19T00:22:49;1.60;;;1.50;;
11123;SDS011;5616;42.692;23.312;2023-11-19T00:25:18;2.10;;;1.90;;
11123;SDS011;5616;42.692;23.312;2023-11-19T00:27:46;1.93;;;1.60;;
11123;SDS011;5616;42.692;23.312;2023-11-19T00:30:13;4.60;;;1.67;;
11123;SDS011;5616;42.692;23.312;2023-11-19T00:32:40;2.53;;;1.97;;
11123;SDS011;5616;42.692;23.312;2023-11-19T00:35:08;2.37;;;1.87;;
11123;SDS011;5616;42.692;23.312;2023-11-19T00:37:36;2.00;;;1.90;;
11123;SDS011;5616;42.692;23.312;2023-11-19T00:40:03;2.20;;;2.00;;
11123;SDS011;5616;42.692;23.312;2023-11-19T00:42:32;2.20;;;2.00;;
11123;SDS011;5616;42.692;23.312;2023-11-19T00:44:59;2.57;;;1.87;;
11123;SDS011;5616;42.692;23.312;2023-11-19T00:47:26;2.77;;;1.90;;
11123;SDS011;5616;42.692;23.312;2023-11-19T00:49:53;2.20;;;2.00;;
11123;SDS011;5616;42.692;23.312;2023-11-19T00:52:20;2.20;;;2.00;;
11123;SDS011;5616;42.692;23.312;2023-11-19T00:54:47;1.97;;;1.73;;
11123;SDS011;5616;42.692;23.312;2023-11-19T00:57:14;2.17;;;1.97;;
11123;SDS011;5616;42.692;23.312;2023-11-19T00:59:42;1.90;;;1.80;;
11123;SDS011;5616;42.692;23.312;2023-11-19T01:02:09;2.10;;;2.00;;
11123;SDS011;5616;42.692;23.312;2023-11-19T01:04:36;2.10;;;1.90;;
11123;SDS011;5616;42.692;23.312;2023-11-19T01:07:04;2.00;;;1.83;;
11123;SDS011;5616;42.692;23.312;2023-11-19T01:09:31;2.30;;;2.10;;
11123;SDS011;5616;42.692;23.312;2023-11-19T01:12:00;1.67;;;1.57;;
11123;SDS011;5616;42.692;23.312;2023-11-19T01:14:27;1.73;;;1.63;;
11123;SDS011;5616;42.692;23.312;2023-11-19T01:16:55;2.23;;;2.00;;
11123;SDS011;5616;42.692;23.312;2023-11-19T01:19:22;2.80;;;2.03;;
11123;SDS011;5616;42.692;23.312;2023-11-19T01:21:49;1.77;;;1.60;;
11123;SDS011;5616;42.692;23.312;2023-11-19T01:24:16;1.90;;;1.80;;
11123;SDS011;5616;42.692;23.312;2023-11-19T01:26:43;1.70;;;1.60;;
11123;SDS011;5616;42.692;23.312;2023-11-19T01:29:12;1.90;;;1.80;;
11123;SDS011;5616;42.692;23.312;2023-11-19T01:31:40;2.00;;;1.90;;
11123;SDS011;5616;42.692;23.312;2023-11-19T01:34:08;1.93;;;1.80;;
11123;SDS011;5616;42.692;23.312;2023-11-19T01:36:36;2.03;;;1.80;;
11123;SDS011;5616;42.692;23.312;2023-11-19T01:39:04;2.23;;;2.03;;
11123;SDS011;5616;42.692;23.312;2023-11-19T01:41:33;2.17;;;1.97;;
11123;SDS011;5616;42.692;23.312;2023-11-19T01:44:01;1.90;;;1.70;;
11123;SDS011;5616;42.692;23.312;2023-11-19T01:46:27;1.80;;;1.70;;
11123;SDS011;5616;42.692;23.312;2023-11-19T01:48:55;1.93;;;1.70;;
11123;SDS011;5616;42.692;23.312;2023-11-19T01:51:24;2.10;;;1.90;;
11123;SDS011;5616;42.692;23.312;2023-11-19T01:53:51;1.70;;;1.60;;
11123;SDS011;5616;42.692;23.312;2023-11-19T01:56:19;2.10;;;1.90;;
11123;SDS011;5616;42.692;23.312;2023-11-19T01:58:47;2.50;;;1.60;;
11123;SDS011;5616;42.692;23.312;2023-11-19T02:01:16;1.93;;;1.80;;
11123;SDS011;5616;42.692;23.312;2023-11-19T02:03:43;1.80;;;1.70;;
11123;SDS011;5616;42.692;23.312;2023-11-19T02:06:10;1.73;;;1.63;;
11123;SDS011;5616;42.692;23.312;2023-11-19T02:08:39;2.80;;;1.70;;
11123;SDS011;5616;42.692;23.312;2023-11-19T02:11:06;1.83;;;1.40;;
11123;SDS011;5616;42.692;23.312;2023-11-19T02:13:33;1.63;;;1.53;;
11123;SDS011;5616;42.692;23.312;2023-11-19T02:16:01;1.60;;;1.50;;
11123;SDS011;5616;42.692;23.312;2023-11-19T02:18:28;1.70;;;1.60;;
11123;SDS011;5616;42.692;23.312;2023-11-19T02:20:56;2.00;;;1.80;;
11123;SDS011;5616;42.692;23.312;2023-11-19T02:23:23;2.57;;;1.70;;
11123;SDS011;5616;42.692;23.312;2023-11-19T02:26:05;2.30;;;1.80;;
11123;SDS011;5616;42.692;23.312;2023-11-19T02:28:42;1.80;;;1.70;;
11123;SDS011;5616;42.692;23.312;2023-11-19T02:31:09;1.93;;;1.73;;
11123;SDS011;5616;42.692;23.312;2023-11-19T02:33:36;1.77;;;1.67;;
11123;SDS011;5616;42.692;23.312;2023-11-19T02:36:04;2.10;;;1.77;;
11123;SDS011;5616;42.692;23.312;2023-11-19T02:38:32;1.80;;;1.60;;
11123;SDS011;5616;42.692;23.312;2023-11-19T02:40:59;2.50;;;1.93;;
11123;SDS011;5616;42.692;23.312;2023-11-19T02:43:27;2.10;;;2.00;;
11123;SDS011;5616;42.692;23.312;2023-11-19T02:45:58;2.43;;;1.83;;
11123;SDS011;5616;42.692;23.312;2023-11-19T02:48:26;1.87;;;1.70;;
11123;SDS011;5616;42.692;23.312;2023-11-19T02:53:41;1.70;;;1.60;;
11123;SDS011;5616;42.692;23.312;2023-11-19T02:56:15;1.83;;;1.73;;
11123;SDS011;5616;42.692;23.312;2023-11-19T02:58:50;2.27;;;2.07;;
11123;SDS011;5616;42.692;23.312;2023-11-19T03:01:22;1.93;;;1.80;;
11123;SDS011;5616;42.692;23.312;2023-11-19T03:03:54;3.67;;;1.70;;
11123;SDS011;5616;42.692;23.312;2023-11-19T03:06:23;2.83;;;1.87;;
11123;SDS011;5616;42.692;23.312;2023-11-19T03:08:50;2.23;;;1.70;;
11123;SDS011;5616;42.692;23.312;2023-11-19T03:11:17;1.73;;;1.60;;
11123;SDS011;5616;42.692;23.312;2023-11-19T03:13:44;2.00;;;1.80;;
11123;SDS011;5616;42.692;23.312;2023-11-19T03:16:14;2.00;;;1.80;;
11123;SDS011;5616;42.692;23.312;2023-11-19T03:18:43;2.00;;;1.67;;
11123;SDS011;5616;42.692;23.312;2023-11-19T03:21:10;2.47;;;1.93;;
11123;SDS011;5616;42.692;23.312;2023-11-19T03:23:37;1.87;;;1.77;;
11123;SDS011;5616;42.692;23.312;2023-11-19T03:26:05;3.20;;;2.10;;
11123;SDS011;5616;42.692;23.312;2023-11-19T03:28:33;2.17;;;1.97;;
11123;SDS011;5616;42.692;23.312;2023-11-19T03:31:00;2.63;;;1.90;;
11123;SDS011;5616;42.692;23.312;2023-11-19T03:33:27;1.90;;;1.80;;
11123;SDS011;5616;42.692;23.312;2023-11-19T03:35:55;1.90;;;1.80;;
11123;SDS011;5616;42.692;23.312;2023-11-19T03:38:23;2.03;;;1.80;;
11123;SDS011;5616;42.692;23.312;2023-11-19T03:40:50;2.60;;;2.20;;
11123;SDS011;5616;42.692;23.312;2023-11-19T03:43:17;2.53;;;1.93;;
11123;SDS011;5616;42.692;23.312;2023-11-19T03:45:45;2.00;;;1.80;;
11123;SDS011;5616;42.692;23.312;2023-11-19T03:48:13;2.27;;;1.90;;
11123;SDS011;5616;42.692;23.312;2023-11-19T03:50:41;2.63;;;2.07;;
11123;SDS011;5616;42.692;23.312;2023-11-19T03:53:10;2.20;;;2.00;;
11123;SDS011;5616;42.692;23.312;2023-11-19T03:55:37;3.53;;;2.00;;
11123;SDS011;5616;42.692;23.312;2023-11-19T03:58:04;2.28;;;2.00;;
11123;SDS011;5616;42.692;23.312;2023-11-19T04:00:31;2.37;;;1.77;;
11123;SDS011;5616;42.692;23.312;2023-11-19T04:02:58;1.87;;;1.70;;
11123;SDS011;5616;42.692;23.312;2023-11-19T04:05:25;1.80;;;1.70;;
11123;SDS011;5616;42.692;23.312;2023-11-19T04:07:52;1.87;;;1.67;;
11123;SDS011;5616;42.692;23.312;2023-11-19T04:10:20;1.97;;;1.60;;
11123;SDS011;5616;42.692;23.312;2023-11-19T04:12:47;1.90;;;1.80;;
11123;SDS011;5616;42.692;23.312;2023-11-19T04:15:15;2.03;;;1.87;;
11123;SDS011;5616;42.692;23.312;2023-11-19T04:17:41;2.00;;;1.80;;
11123;SDS011;5616;42.692;23.312;2023-11-19T04:20:09;2.20;;;2.00;;
11123;SDS011;5616;42.692;23.312;2023-11-19T04:22:38;2.20;;;2.00;;
11123;SDS011;5616;42.692;23.312;2023-11-19T04:25:05;1.93;;;1.73;;
11123;SDS011;5616;42.692;23.312;2023-11-19T04:27:34;2.20;;;1.80;;
11123;SDS011;5616;42.692;23.312;2023-11-19T04:30:01;1.80;;;1.70;;
11123;SDS011;5616;42.692;23.312;2023-11-19T04:32:28;2.30;;;2.00;;
11123;SDS011;5616;42.692;23.312;2023-11-19T04:34:55;1.90;;;1.70;;
11123;SDS011;5616;42.692;23.312;2023-11-19T04:37:22;2.00;;;1.80;;
11123;SDS011;5616;42.692;23.312;2023-11-19T04:39:49;2.53;;;2.33;;
11123;SDS011;5616;42.692;23.312;2023-11-19T04:42:16;2.13;;;1.93;;
11123;SDS011;5616;42.692;23.312;2023-11-19T04:44:44;2.10;;;1.90;;
11123;SDS011;5616;42.692;23.312;2023-11-19T04:47:11;2.10;;;1.90;;
11123;SDS011;5616;42.692;23.312;2023-11-19T04:49:39;2.40;;;2.20;;
11123;SDS011;5616;42.692;23.312;2023-11-19T04:52:08;1.90;;;1.70;;
11123;SDS011;5616;42.692;23.312;2023-11-19T04:54:35;2.10;;;1.90;;
11123;SDS011;5616;42.692;23.312;2023-11-19T04:57:01;2.10;;;1.90;;
11123;SDS011;5616;42.692;23.312;2023-11-19T04:59:29;2.50;;;2.07;;
11123;SDS011;5616;42.692;23.312;2023-11-19T05:01:57;2.20;;;2.00;;
11123;SDS011;5616;42.692;23.312;2023-11-19T05:04:24;2.30;;;2.00;;
11123;SDS011;5616;42.692;23.312;2023-11-19T05:06:51;2.10;;;1.90;;
11123;SDS011;5616;42.692;23.312;2023-11-19T05:09:17;3.67;;;2.10;;
11123;SDS011;5616;42.692;23.312;2023-11-19T05:11:44;2.40;;;2.13;;
11123;SDS011;5616;42.692;23.312;2023-11-19T05:14:11;2.27;;;1.90;;
11123;SDS011;5616;42.692;23.312;2023-11-19T05:16:39;1.97;;;1.87;;
11123;SDS011;5616;42.692;23.312;2023-11-19T05:19:07;2.33;;;2.00;;
11123;SDS011;5616;42.692;23.312;2023-11-19T05:21:35;2.10;;;1.90;;
11123;SDS011;5616;42.692;23.312;2023-11-19T05:24:02;2.10;;;1.90;;
11123;SDS011;5616;42.692;23.312;2023-11-19T05:26:30;2.33;;;2.00;;
11123;SDS011;5616;42.692;23.312;2023-11-19T05:28:57;2.10;;;1.90;;
11123;SDS011;5616;42.692;23.312;2023-11-19T05:31:24;2.60;;;2.23;;
11123;SDS011;5616;42.692;23.312;2023-11-19T05:33:50;2.80;;;2.23;;
11123;SDS011;5616;42.692;23.312;2023-11-19T05:36:19;2.53;;;2.33;;
11123;SDS011;5616;42.692;23.312;2023-11-19T05:38:45;2.70;;;2.27;;
11123;SDS011;5616;42.692;23.312;2023-11-19T05:41:12;2.43;;;2.00;;
11123;SDS011;5616;42.692;23.312;2023-11-19T05:43:40;2.77;;;2.50;;
11123;SDS011;5616;42.692;23.312;2023-11-19T05:46:07;2.47;;;2.27;;
11123;SDS011;5616;42.692;23.312;2023-11-19T05:48:34;2.40;;;2.00;;
11123;SDS011;5616;42.692;23.312;2023-11-19T05:51:01;2.37;;;2.17;;
11123;SDS011;5616;42.692;23.312;2023-11-19T05:53:32;2.50;;;2.30;;
11123;SDS011;5616;42.692;23.312;2023-11-19T05:56:02;2.30;;;2.10;;
11123;SDS011;5616;42.692;23.312;2023-11-19T05:58:29;2.70;;;2.50;;
11123;SDS011;5616;42.692;23.312;2023-11-19T06:00:59;2.60;;;2.40;;
11123;SDS011;5616;42.692;23.312;2023-11-19T06:03:31;2.40;;;2.20;;
11123;SDS011;5616;42.692;23.312;2023-11-19T06:06:00;2.10;;;1.90;;
11123;SDS011;5616;42.692;23.312;2023-11-19T06:08:27;2.70;;;2.20;;
11123;SDS011;5616;42.692;23.312;2023-11-19T06:10:56;2.40;;;2.20;;
11123;SDS011;5616;42.692;23.312;2023-11-19T06:13:23;2.27;;;2.07;;
11123;SDS011;5616;42.692;23.312;2023-11-19T06:15:53;1.90;;;1.80;;
11123;SDS011;5616;42.692;23.312;2023-11-19T06:18:20;2.83;;;1.90;;
11123;SDS011;5616;42.692;23.312;2023-11-19T06:20:48;2.87;;;2.10;;
11123;SDS011;5616;42.692;23.312;2023-11-19T06:23:16;4.00;;;2.40;;
11123;SDS011;5616;42.692;23.312;2023-11-19T06:25:42;2.53;;;2.10;;
11123;SDS011;5616;42.692;23.312;2023-11-19T06:28:11;3.07;;;2.50;;
11123;SDS011;5616;42.692;23.312;2023-11-19T06:30:38;3.50;;;2.70;;
11123;SDS011;5616;42.692;23.312;2023-11-19T06:33:05;3.87;;;2.33;;
11123;SDS011;5616;42.692;23.312;2023-11-19T06:35:32;2.40;;;2.20;;
11123;SDS011;5616;42.692;23.312;2023-11-19T06:38:01;2.40;;;2.20;;
11123;SDS011;5616;42.692;23.312;2023-11-19T06:40:29;2.60;;;2.40;;
11123;SDS011;5616;42.692;23.312;2023-11-19T06:42:56;4.13;;;2.87;;
11123;SDS011;5616;42.692;23.312;2023-11-19T06:45:24;3.10;;;2.43;;
11123;SDS011;5616;42.692;23.312;2023-11-19T06:47:51;3.10;;;2.70;;
11123;SDS011;5616;42.692;23.312;2023-11-19T06:50:18;3.60;;;2.70;;
11123;SDS011;5616;42.692;23.312;2023-11-19T06:52:45;2.47;;;2.20;;
11123;SDS011;5616;42.692;23.312;2023-11-19T06:55:12;2.30;;;2.10;;
11123;SDS011;5616;42.692;23.312;2023-11-19T06:57:39;4.07;;;2.30;;
11123;SDS011;5616;42.692;23.312;2023-11-19T07:00:06;3.23;;;2.20;;
11123;SDS011;5616;42.692;23.312;2023-11-19T07:02:35;3.10;;;2.67;;
11123;SDS011;5616;42.692;23.312;2023-11-19T07:05:02;2.73;;;2.53;;
11123;SDS011;5616;42.692;23.312;2023-11-19T07:07:30;2.47;;;2.27;;
11123;SDS011;5616;42.692;23.312;2023-11-19T07:09:57;3.13;;;2.83;;
11123;SDS011;5616;42.692;23.312;2023-11-19T07:12:24;2.53;;;2.33;;
11123;SDS011;5616;42.692;23.312;2023-11-19T07:14:52;3.50;;;2.50;;
11123;SDS011;5616;42.692;23.312;2023-11-19T07:17:20;2.33;;;2.10;;
11123;SDS011;5616;42.692;23.312;2023-11-19T07:19:49;3.20;;;2.10;;
11123;SDS011;5616;42.692;23.312;2023-11-19T07:22:16;2.60;;;2.40;;
11123;SDS011;5616;42.692;23.312;2023-11-19T07:24:43;2.57;;;2.37;;
11123;SDS011;5616;42.692;23.312;2023-11-19T07:27:10;3.37;;;2.30;;
11123;SDS011;5616;42.692;23.312;2023-11-19T07:29:38;2.23;;;2.03;;
11123;SDS011;5616;42.692;23.312;2023-11-19T07:32:05;2.83;;;2.53;;
11123;SDS011;5616;42.692;23.312;2023-11-19T07:34:34;3.00;;;2.70;;
11123;SDS011;5616;42.692;23.312;2023-11-19T07:37:02;3.07;;;2.80;;
11123;SDS011;5616;42.692;23.312;2023-11-19T07:39:29;3.03;;;2.73;;
11123;SDS011;5616;42.692;23.312;2023-11-19T07:41:56;3.03;;;2.73;;
11123;SDS011;5616;42.692;23.312;2023-11-19T07:44:24;2.93;;;2.63;;
11123;SDS011;5616;42.692;23.312;2023-11-19T07:46:51;2.80;;;2.50;;
11123;SDS011;5616;42.692;23.312;2023-11-19T07:49:18;2.30;;;2.10;;
11123;SDS011;5616;42.692;23.312;2023-11-19T07:51:44;2.67;;;2.47;;
11123;SDS011;5616;42.692;23.312;2023-11-19T07:54:12;2.90;;;2.23;;
11123;SDS011;5616;42.692;23.312;2023-11-19T07:56:40;2.60;;;2.40;;
11123;SDS011;5616;42.692;23.312;2023-11-19T07:59:07;2.40;;;2.10;;
11123;SDS011;5616;42.692;23.312;2023-11-19T08:01:33;2.43;;;2.23;;
11123;SDS011;5616;42.692;23.312;2023-11-19T08:04:00;3.50;;;2.63;;
11123;SDS011;5616;42.692;23.312;2023-11-19T08:06:28;2.57;;;2.37;;
11123;SDS011;5616;42.692;23.312;2023-11-19T08:08:54;2.60;;;2.40;;
11123;SDS011;5616;42.692;23.312;2023-11-19T08:11:23;4.13;;;2.47;;
11123;SDS011;5616;42.692;23.312;2023-11-19T08:13:49;2.43;;;2.23;;
11123;SDS011;5616;42.692;23.312;2023-11-19T08:16:16;2.27;;;2.07;;
11123;SDS011;5616;42.692;23.312;2023-11-19T08:18:43;2.40;;;2.20;;
11123;SDS011;5616;42.692;23.312;2023-11-19T08:21:10;2.77;;;2.57;;
11123;SDS011;5616;42.692;23.312;2023-11-19T08:23:37;3.40;;;2.90;;
11123;SDS011;5616;42.692;23.312;2023-11-19T08:26:04;2.87;;;2.57;;
11123;SDS011;5616;42.692;23.312;2023-11-19T08:28:32;2.87;;;2.53;;
11123;SDS011;5616;42.692;23.312;2023-11-19T08:31:00;2.87;;;2.53;;
11123;SDS011;5616;42.692;23.312;2023-11-19T08:33:28;3.00;;;2.70;;
11123;SDS011;5616;42.692;23.312;2023-11-19T08:35:54;2.83;;;2.53;;
11123;SDS011;5616;42.692;23.312;2023-11-19T08:38:22;2.40;;;2.20;;
11123;SDS011;5616;42.692;23.312;2023-11-19T08:40:49;3.13;;;2.83;;
11123;SDS011;5616;42.692;23.312;2023-11-19T08:43:15;3.22;;;2.88;;
11123;SDS011;5616;42.692;23.312;2023-11-19T08:45:44;3.17;;;2.50;;
11123;SDS011;5616;42.692;23.312;2023-11-19T08:48:10;2.57;;;2.37;;
11123;SDS011;5616;42.692;23.312;2023-11-19T08:50:37;2.67;;;2.47;;
11123;SDS011;5616;42.692;23.312;2023-11-19T08:53:04;2.60;;;2.40;;
11123;SDS011;5616;42.692;23.312;2023-11-19T08:55:32;2.70;;;2.50;;
11123;SDS011;5616;42.692;23.312;2023-11-19T08:57:58;3.00;;;2.30;;
11123;SDS011;5616;42.692;23.312;2023-11-19T09:00:26;3.20;;;2.90;;
11123;SDS011;5616;42.692;23.312;2023-11-19T09:02:54;2.80;;;2.40;;
11123;SDS011;5616;42.692;23.312;2023-11-19T09:05:21;2.83;;;2.50;;
11123;SDS011;5616;42.692;23.312;2023-11-19T09:07:48;2.97;;;2.67;;
11123;SDS011;5616;42.692;23.312;2023-11-19T09:10:15;4.30;;;3.53;;
11123;SDS011;5616;42.692;23.312;2023-11-19T09:12:41;2.90;;;2.60;;
11123;SDS011;5616;42.692;23.312;2023-11-19T09:15:09;2.90;;;2.60;;
11123;SDS011;5616;42.692;23.312;2023-11-19T09:17:36;3.00;;;2.70;;
11123;SDS011;5616;42.692;23.312;2023-11-19T09:20:05;2.70;;;2.47;;
11123;SDS011;5616;42.692;23.312;2023-11-19T09:22:34;2.50;;;2.30;;
11123;SDS011;5616;42.692;23.312;2023-11-19T09:25:00;2.93;;;2.63;;
11123;SDS011;5616;42.692;23.312;2023-11-19T09:27:27;2.53;;;2.33;;
11123;SDS011;5616;42.692;23.312;2023-11-19T09:29:54;3.87;;;2.90;;
11123;SDS011;5616;42.692;23.312;2023-11-19T09:32:23;3.27;;;2.77;;
11123;SDS011;5616;42.692;23.312;2023-11-19T09:34:50;2.97;;;2.70;;
11123;SDS011;5616;42.692;23.312;2023-11-19T09:37:19;2.50;;;2.30;;
11123;SDS011;5616;42.692;23.312;2023-11-19T09:39:45;2.43;;;2.23;;
11123;SDS011;5616;42.692;23.312;2023-11-19T09:42:12;2.90;;;2.60;;
11123;SDS011;5616;42.692;23.312;2023-11-19T09:44:39;3.17;;;2.60;;
11123;SDS011;5616;42.692;23.312;2023-11-19T09:47:11;2.87;;;2.57;;
11123;SDS011;5616;42.692;23.312;2023-11-19T09:49:40;2.77;;;2.20;;
11123;SDS011;5616;42.692;23.312;2023-11-19T09:52:07;2.90;;;2.40;;
11123;SDS011;5616;42.692;23.312;2023-11-19T09:54:36;2.33;;;2.13;;
11123;SDS011;5616;42.692;23.312;2023-11-19T09:57:03;2.27;;;2.07;;
11123;SDS011;5616;42.692;23.312;2023-11-19T09:59:33;2.40;;;2.20;;
11123;SDS011;5616;42.692;23.312;2023-11-19T10:02:00;2.43;;;2.10;;
11123;SDS011;5616;42.692;23.312;2023-11-19T10:04:27;2.47;;;2.27;;
11123;SDS011;5616;42.692;23.312;2023-11-19T10:06:59;2.40;;;2.20;;
11123;SDS011;5616;42.692;23.312;2023-11-19T10:09:25;2.37;;;2.17;;
11123;SDS011;5616;42.692;23.312;2023-11-19T10:11:54;2.93;;;2.57;;
11123;SDS011;5616;42.692;23.312;2023-11-19T10:14:23;3.25;;;2.75;;
11123;SDS011;5616;42.692;23.312;2023-11-19T10:16:50;3.00;;;2.73;;
11123;SDS011;5616;42.692;23.312;2023-11-19T10:19:20;3.83;;;2.80;;
11123;SDS011;5616;42.692;23.312;2023-11-19T10:21:47;3.40;;;3.00;;
11123;SDS011;5616;42.692;23.312;2023-11-19T10:24:14;3.37;;;2.70;;
11123;SDS011;5616;42.692;23.312;2023-11-19T10:26:40;3.50;;;2.93;;
11123;SDS011;5616;42.692;23.312;2023-11-19T10:29:09;3.00;;;2.70;;
11123;SDS011;5616;42.692;23.312;2023-11-19T10:31:39;2.50;;;2.30;;
11123;SDS011;5616;42.692;23.312;2023-11-19T10:34:10;2.77;;;2.40;;
11123;SDS011;5616;42.692;23.312;2023-11-19T10:36:51;2.70;;;2.50;;
11123;SDS011;5616;42.692;23.312;2023-11-19T10:39:18;3.17;;;2.60;;
11123;SDS011;5616;42.692;23.312;2023-11-19T10:41:46;2.97;;;2.53;;
11123;SDS011;5616;42.692;23.312;2023-11-19T10:44:17;2.80;;;2.60;;
11123;SDS011;5616;42.692;23.312;2023-11-19T10:46:58;2.17;;;1.97;;
11123;SDS011;5616;42.692;23.312;2023-11-19T10:49:25;2.57;;;2.20;;
11123;SDS011;5616;42.692;23.312;2023-11-19T10:51:52;2.40;;;2.20;;
11123;SDS011;5616;42.692;23.312;2023-11-19T10:54:22;5.23;;;2.43;;
11123;SDS011;5616;42.692;23.312;2023-11-19T10:56:53;2.50;;;2.30;;
11123;SDS011;5616;42.692;23.312;2023-11-19T10:59:23;2.17;;;1.97;;
11123;SDS011;5616;42.692;23.312;2023-11-19T11:01:52;4.30;;;2.30;;
11123;SDS011;5616;42.692;23.312;2023-11-19T11:04:22;2.30;;;2.10;;
11123;SDS011;5616;42.692;23.312;2023-11-19T11:06:49;6.10;;;2.63;;
11123;SDS011;5616;42.692;23.312;2023-11-19T11:09:17;2.30;;;2.10;;
11123;SDS011;5616;42.692;23.312;2023-11-19T11:11:44;2.40;;;2.17;;
11123;SDS011;5616;42.692;23.312;2023-11-19T11:14:13;2.63;;;2.10;;
11123;SDS011;5616;42.692;23.312;2023-11-19T11:16:43;3.03;;;1.90;;
11123;SDS011;5616;42.692;23.312;2023-11-19T11:19:12;2.13;;;1.93;;
11123;SDS011;5616;42.692;23.312;2023-11-19T11:21:40;2.10;;;1.90;;
11123;SDS011;5616;42.692;23.312;2023-11-19T11:24:21;2.10;;;1.90;;
11123;SDS011;5616;42.692;23.312;2023-11-19T11:27:12;3.63;;;1.90;;
11123;SDS011;5616;42.692;23.312;2023-11-19T11:29:59;2.10;;;1.90;;
11123;SDS011;5616;42.692;23.312;2023-11-19T11:32:39;2.37;;;2.17;;
11123;SDS011;5616;42.692;23.312;2023-11-19T11:35:14;2.10;;;1.90;;
11123;SDS011;5616;42.692;23.312;2023-11-19T11:37:53;1.90;;;1.70;;
11123;SDS011;5616;42.692;23.312;2023-11-19T11:40:26;2.08;;;1.88;;
11123;SDS011;5616;42.692;23.312;2023-11-19T11:42:53;1.50;;;1.40;;
11123;SDS011;5616;42.692;23.312;2023-11-19T11:45:21;2.60;;;1.80;;
11123;SDS011;5616;42.692;23.312;2023-11-19T11:48:10;2.10;;;1.70;;
11123;SDS011;5616;42.692;23.312;2023-11-19T11:50:48;2.00;;;1.77;;
11123;SDS011;5616;42.692;23.312;2023-11-19T11:53:16;1.87;;;1.70;;
11123;SDS011;5616;42.692;23.312;2023-11-19T11:55:56;2.20;;;2.00;;
11123;SDS011;5616;42.692;23.312;2023-11-19T11:58:32;2.60;;;2.20;;
11123;SDS011;5616;42.692;23.312;2023-11-19T12:01:03;2.17;;;1.97;;
11123;SDS011;5616;42.692;23.312;2023-11-19T12:03:33;2.20;;;2.00;;
11123;SDS011;5616;42.692;23.312;2023-11-19T12:06:00;3.10;;;1.70;;
11123;SDS011;5616;42.692;23.312;2023-11-19T12:08:28;2.30;;;2.10;;
11123;SDS011;5616;42.692;23.312;2023-11-19T12:10:57;2.40;;;2.20;;
11123;SDS011;5616;42.692;23.312;2023-11-19T12:13:26;2.13;;;1.83;;
11123;SDS011;5616;42.692;23.312;2023-11-19T12:16:12;2.20;;;1.90;;
11123;SDS011;5616;42.692;23.312;2023-11-19T12:18:41;2.43;;;2.00;;
11123;SDS011;5616;42.692;23.312;2023-11-19T12:21:07;2.70;;;2.10;;
11123;SDS011;5616;42.692;23.312;2023-11-19T12:23:35;2.93;;;1.90;;
11123;SDS011;5616;42.692;23.312;2023-11-19T12:26:32;2.20;;;2.00;;
11123;SDS011;5616;42.692;23.312;2023-11-19T12:29:02;2.10;;;1.90;;
11123;SDS011;5616;42.692;23.312;2023-11-19T12:31:31;1.93;;;1.77;;
11123;SDS011;5616;42.692;23.312;2023-11-19T12:34:09;2.23;;;2.03;;
11123;SDS011;5616;42.692;23.312;2023-11-19T12:36:39;2.33;;;2.13;;
11123;SDS011;5616;42.692;23.312;2023-11-19T12:39:07;2.20;;;2.00;;
11123;SDS011;5616;42.692;23.312;2023-11-19T12:41:53;2.37;;;2.17;;
11123;SDS011;5616;42.692;23.312;2023-11-19T12:44:20;2.47;;;2.27;;
11123;SDS011;5616;42.692;23.312;2023-11-19T12:46:58;2.77;;;2.30;;
11123;SDS011;5616;42.692;23.312;2023-11-19T12:49:28;2.20;;;2.00;;
11123;SDS011;5616;42.692;23.312;2023-11-19T12:51:54;2.60;;;2.20;;
11123;SDS011;5616;42.692;23.312;2023-11-19T12:54:31;2.43;;;2.23;;
11123;SDS011;5616;42.692;23.312;2023-11-19T12:56:59;3.50;;;2.30;;
11123;SDS011;5616;42.692;23.312;2023-11-19T12:59:25;2.30;;;2.10;;
11123;SDS011;5616;42.692;23.312;2023-11-19T13:01:56;2.50;;;2.20;;
11123;SDS011;5616;42.692;23.312;2023-11-19T13:04:23;2.97;;;2.30;;
11123;SDS011;5616;42.692;23.312;2023-11-19T13:06:57;3.90;;;2.50;;
11123;SDS011;5616;42.692;23.312;2023-11-19T13:09:24;3.03;;;2.40;;
11123;SDS011;5616;42.692;23.312;2023-11-19T13:11:51;2.73;;;2.53;;
11123;SDS011;5616;42.692;23.312;2023-11-19T13:14:19;2.80;;;2.60;;
11123;SDS011;5616;42.692;23.312;2023-11-19T13:16:46;2.67;;;2.43;;
11123;SDS011;5616;42.692;23.312;2023-11-19T13:19:14;3.40;;;2.60;;
11123;SDS011;5616;42.692;23.312;2023-11-19T13:21:42;2.80;;;2.50;;
11123;SDS011;5616;42.692;23.312;2023-11-19T13:24:13;2.63;;;2.43;;
11123;SDS011;5616;42.692;23.312;2023-11-19T13:26:40;3.07;;;2.30;;
11123;SDS011;5616;42.692;23.312;2023-11-19T13:29:07;4.90;;;2.57;;
11123;SDS011;5616;42.692;23.312;2023-11-19T13:31:35;5.03;;;2.50;;
11123;SDS011;5616;42.692;23.312;2023-11-19T13:34:03;2.90;;;2.60;;
11123;SDS011;5616;42.692;23.312;2023-11-19T13:36:32;2.50;;;2.30;;
11123;SDS011;5616;42.692;23.312;2023-11-19T13:39:00;3.17;;;2.57;;
11123;SDS011;5616;42.692;23.312;2023-11-19T13:41:27;2.50;;;2.30;;
11123;SDS011;5616;42.692;23.312;2023-11-19T13:43:54;2.83;;;2.60;;
11123;SDS011;5616;42.692;23.312;2023-11-19T13:46:21;3.17;;;2.70;;
11123;SDS011;5616;42.692;23.312;2023-11-19T13:48:48;2.50;;;2.20;;
11123;SDS011;5616;42.692;23.312;2023-11-19T13:51:15;2.40;;;2.20;;
11123;SDS011;5616;42.692;23.312;2023-11-19T13:53:42;2.30;;;2.10;;
11123;SDS011;5616;42.692;23.312;2023-11-19T13:56:11;3.70;;;2.47;;
11123;SDS011;5616;42.692;23.312;2023-11-19T13:58:38;2.40;;;2.20;;
11123;SDS011;5616;42.692;23.312;2023-11-19T14:01:05;3.10;;;2.70;;
11123;SDS011;5616;42.692;23.312;2023-11-19T14:03:32;3.27;;;2.50;;
11123;SDS011;5616;42.692;23.312;2023-11-19T14:05:59;2.03;;;1.83;;
11123;SDS011;5616;42.692;23.312;2023-11-19T14:08:26;4.30;;;2.20;;
11123;SDS011;5616;42.692;23.312;2023-11-19T14:10:53;2.60;;;2.40;;
11123;SDS011;5616;42.692;23.312;2023-11-19T14:13:22;3.37;;;2.60;;
11123;SDS011;5616;42.692;23.312;2023-11-19T14:15:49;2.63;;;2.43;;
11123;SDS011;5616;42.692;23.312;2023-11-19T14:18:16;2.67;;;2.30;;
11123;SDS011;5616;42.692;23.312;2023-11-19T14:20:43;2.60;;;2.20;;
11123;SDS011;5616;42.692;23.312;2023-11-19T14:23:10;2.80;;;2.50;;
11123;SDS011;5616;42.692;23.312;2023-11-19T14:25:37;3.80;;;2.60;;
11123;SDS011;5616;42.692;23.312;2023-11-19T14:28:04;3.27;;;2.67;;
11123;SDS011;5616;42.692;23.312;2023-11-19T14:30:32;2.97;;;2.63;;
11123;SDS011;5616;42.692;23.312;2023-11-19T14:33:00;4.10;;;3.00;;
11123;SDS011;5616;42.692;23.312;2023-11-19T14:35:27;3.63;;;2.80;;
11123;SDS011;5616;42.692;23.312;2023-11-19T14:37:55;3.67;;;2.90;;
11123;SDS011;5616;42.692;23.312;2023-11-19T14:40:22;2.80;;;2.60;;
11123;SDS011;5616;42.692;23.312;2023-11-19T14:42:49;3.33;;;3.00;;
11123;SDS011;5616;42.692;23.312;2023-11-19T14:45:16;3.37;;;3.00;;
11123;SDS011;5616;42.692;23.312;2023-11-19T14:47:44;2.93;;;2.63;;
11123;SDS011;5616;42.692;23.312;2023-11-19T14:50:11;3.53;;;2.80;;
11123;SDS011;5616;42.692;23.312;2023-11-19T14:52:40;4.57;;;3.23;;
11123;SDS011;5616;42.692;23.312;2023-11-19T14:55:09;4.97;;;3.40;;
11123;SDS011;5616;42.692;23.312;2023-11-19T14:57:36;5.60;;;3.70;;